createdAt,value
2023-11-22T00:01:35.071Z,15.25
2023-11-22T00:04:04.472Z,17.45
2023-11-22T00:06:33.062Z,17.02
2023-11-22T00:09:02.338Z,16.67
2023-11-22T00:11:32.266Z,17.52
2023-11-22T00:14:00.987Z,18.17
2023-11-22T00:16:29.688Z,17.60
2023-11-22T00:18:58.662Z,18.35
2023-11-22T00:21:27.300Z,18.05
2023-11-22T00:23:55.781Z,18.00
2023-11-22T00:26:24.942Z,19.92
2023-11-22T00:29:01.558Z,18.27
2023-11-22T00:31:31.126Z,17.48
2023-11-22T00:33:59.881Z,17.75
2023-11-22T00:36:28.532Z,15.30
2023-11-22T00:38:57.061Z,16.95
2023-11-22T00:41:26.105Z,18.25
2023-11-22T00:43:54.641Z,16.23
2023-11-22T00:46:26.026Z,17.48
2023-11-22T00:48:54.605Z,19.48
2023-11-22T00:51:23.650Z,19.60
2023-11-22T00:53:53.062Z,18.77
2023-11-22T00:56:21.532Z,19.05
2023-11-22T00:58:51.026Z,17.38
2023-11-22T01:01:20.233Z,16.90
2023-11-22T01:03:50.830Z,19.35
2023-11-22T01:06:20.078Z,18.95
2023-11-22T01:08:49.080Z,24.35
2023-11-22T01:11:17.930Z,22.02
2023-11-22T01:13:47.599Z,20.83
2023-11-22T01:16:16.883Z,22.73
2023-11-22T01:18:47.214Z,23.45
2023-11-22T01:21:17.245Z,24.38
2023-11-22T01:23:46.161Z,25.58
2023-11-22T01:26:14.650Z,21.95
2023-11-22T01:28:45.342Z,23.27
2023-11-22T01:31:15.177Z,24.33
2023-11-22T01:33:43.703Z,23.38
2023-11-22T01:36:12.115Z,22.90
2023-11-22T01:38:42.114Z,24.00
2023-11-22T01:41:13.948Z,24.85
2023-11-22T01:43:42.952Z,24.48
2023-11-22T01:46:16.769Z,22.95
2023-11-22T01:48:45.353Z,24.50
2023-11-22T01:51:16.341Z,24.02
2023-11-22T01:53:46.382Z,26.45
2023-11-22T01:56:15.921Z,24.23
2023-11-22T01:58:44.810Z,25.10
2023-11-22T02:01:14.594Z,24.25
2023-11-22T02:03:43.547Z,24.63
2023-11-22T02:06:12.960Z,26.85
2023-11-22T02:08:41.366Z,26.20
2023-11-22T02:11:12.444Z,25.67
2023-11-22T02:13:41.217Z,25.35
2023-11-22T02:16:09.856Z,25.17
2023-11-22T02:18:38.622Z,26.17
2023-11-22T02:21:08.901Z,24.95
2023-11-22T02:23:39.140Z,22.65
2023-11-22T02:26:07.983Z,24.92
2023-11-22T02:28:36.470Z,24.65
2023-11-22T02:31:05.203Z,25.13
2023-11-22T02:33:33.831Z,27.35
2023-11-22T02:36:03.049Z,25.42
2023-11-22T02:38:31.753Z,25.05
2023-11-22T02:41:01.701Z,26.02
2023-11-22T02:43:31.637Z,27.67
2023-11-22T02:46:01.628Z,28.75
2023-11-22T02:48:30.154Z,27.27
2023-11-22T02:50:58.917Z,24.40
2023-11-22T02:53:28.228Z,25.27
2023-11-22T02:55:57.543Z,27.75
2023-11-22T02:58:28.739Z,24.80
2023-11-22T03:00:58.568Z,25.85
2023-11-22T03:03:27.190Z,23.85
2023-11-22T03:05:55.852Z,24.25
2023-11-22T03:08:24.337Z,24.02
2023-11-22T03:10:54.132Z,21.60
2023-11-22T03:13:22.695Z,22.35
2023-11-22T03:15:53.189Z,21.08
2023-11-22T03:18:22.469Z,22.48
2023-11-22T03:20:55.102Z,21.20
2023-11-22T03:23:23.868Z,23.80
2023-11-22T03:25:53.081Z,21.05
2023-11-22T03:28:23.484Z,24.45
2023-11-22T03:30:54.905Z,22.92
2023-11-22T03:33:23.400Z,26.20
2023-11-22T03:35:52.547Z,24.80
2023-11-22T03:38:22.979Z,26.58
2023-11-22T03:40:51.442Z,23.60
2023-11-22T03:43:20.046Z,24.92
2023-11-22T03:45:48.660Z,23.98
2023-11-22T03:48:19.104Z,23.48
2023-11-22T03:50:47.626Z,25.08
2023-11-22T03:53:16.199Z,20.95
2023-11-22T03:55:45.392Z,22.13
2023-11-22T03:58:13.864Z,23.30
2023-11-22T04:00:42.535Z,24.52
2023-11-22T04:03:11.422Z,22.05
2023-11-22T04:05:42.024Z,27.10
2023-11-22T04:08:11.053Z,22.45
2023-11-22T04:10:39.652Z,21.40
2023-11-22T04:13:08.245Z,23.48
2023-11-22T04:15:37.001Z,20.10
2023-11-22T04:18:06.084Z,23.70
2023-11-22T04:20:36.302Z,27.70
2023-11-22T04:23:07.834Z,23.30
2023-11-22T04:25:36.690Z,26.05
2023-11-22T04:28:05.507Z,23.98
2023-11-22T04:30:34.291Z,25.02
2023-11-22T04:33:03.253Z,21.85
2023-11-22T04:35:35.158Z,23.85
2023-11-22T04:38:04.744Z,20.52
2023-11-22T04:40:35.062Z,21.58
2023-11-22T04:43:06.190Z,23.35
2023-11-22T04:45:34.731Z,26.02
2023-11-22T04:48:03.448Z,22.02
2023-11-22T04:50:32.032Z,22.25
2023-11-22T04:53:00.583Z,22.02
2023-11-22T04:55:29.279Z,23.30
2023-11-22T04:57:59.489Z,25.42
2023-11-22T05:00:27.982Z,22.40
2023-11-22T05:02:56.545Z,24.20
2023-11-22T05:05:25.130Z,23.33
2023-11-22T05:07:53.713Z,20.85
2023-11-22T05:10:22.604Z,23.13
2023-11-22T05:12:50.977Z,24.00
2023-11-22T05:15:21.163Z,24.60
2023-11-22T05:17:49.779Z,21.05
2023-11-22T05:20:18.486Z,22.20
2023-11-22T05:22:47.133Z,20.25
2023-11-22T05:25:15.950Z,24.10
2023-11-22T05:27:44.411Z,22.88
2023-11-22T05:30:13.873Z,22.20
2023-11-22T05:32:45.412Z,24.80
2023-11-22T05:35:14.412Z,24.90
2023-11-22T05:37:43.601Z,27.08
2023-11-22T05:40:13.467Z,24.55
2023-11-22T05:42:42.090Z,27.92
2023-11-22T05:45:12.121Z,22.45
2023-11-22T05:47:40.779Z,23.55
2023-11-22T05:50:11.538Z,22.92
2023-11-22T05:52:40.303Z,23.33
2023-11-22T05:55:09.934Z,22.67
2023-11-22T05:57:38.378Z,21.38
2023-11-22T06:00:08.963Z,23.10
2023-11-22T06:02:41.584Z,23.83
2023-11-22T06:05:12.404Z,22.80
2023-11-22T06:07:41.053Z,21.48
2023-11-22T06:10:10.319Z,20.13
2023-11-22T06:12:39.172Z,25.70
2023-11-22T06:15:08.969Z,27.77
2023-11-22T06:17:37.600Z,23.63
2023-11-22T06:20:07.949Z,25.35
2023-11-22T06:22:41.948Z,24.55
2023-11-22T06:25:11.102Z,23.13
2023-11-22T06:27:39.788Z,23.85
2023-11-22T06:30:10.245Z,23.95
2023-11-22T06:32:38.694Z,24.00
2023-11-22T06:35:09.958Z,22.35
2023-11-22T06:37:39.938Z,23.67
2023-11-22T06:40:10.250Z,25.08
2023-11-22T06:42:38.762Z,25.70
2023-11-22T06:45:10.973Z,27.02
2023-11-22T06:47:39.709Z,26.95
2023-11-22T06:50:10.607Z,27.60
2023-11-22T06:52:41.530Z,25.38
2023-11-22T06:55:11.248Z,24.52
2023-11-22T06:57:40.176Z,29.33
2023-11-22T07:00:10.576Z,31.02
2023-11-22T07:02:39.426Z,22.67
2023-11-22T07:05:10.934Z,27.50
2023-11-22T07:07:41.684Z,24.00
2023-11-22T07:10:12.626Z,28.88
2023-11-22T07:12:41.317Z,26.70
2023-11-22T07:15:10.881Z,25.25
2023-11-22T07:17:40.017Z,28.92
2023-11-22T07:20:13.988Z,31.73
2023-11-22T07:22:44.639Z,27.25
2023-11-22T07:25:36.775Z,30.08
2023-11-22T07:28:06.405Z,27.92
2023-11-22T07:30:40.082Z,25.30
2023-11-22T07:33:08.830Z,28.60
2023-11-22T07:35:37.587Z,26.67
2023-11-22T07:38:09.158Z,23.77
2023-11-22T07:40:38.499Z,25.20
2023-11-22T07:43:08.436Z,25.35
2023-11-22T07:45:38.260Z,25.75
2023-11-22T07:48:08.552Z,24.63
2023-11-22T07:50:38.948Z,27.83
2023-11-22T07:53:10.173Z,25.95
2023-11-22T07:55:38.851Z,26.23
2023-11-22T07:58:08.643Z,22.75
2023-11-22T08:00:38.222Z,24.27
2023-11-22T08:03:08.326Z,21.90
2023-11-22T08:05:37.288Z,23.50
2023-11-22T08:08:09.154Z,21.73
2023-11-22T08:10:39.406Z,21.85
2023-11-22T08:13:07.832Z,22.60
2023-11-22T08:15:36.440Z,26.02
2023-11-22T08:18:07.749Z,23.70
2023-11-22T08:20:37.031Z,33.92
2023-11-22T08:23:07.207Z,24.02
2023-11-22T08:25:36.773Z,21.75
2023-11-22T08:28:09.231Z,22.38
2023-11-22T08:30:38.211Z,20.85
2023-11-22T08:33:07.421Z,18.55
2023-11-22T08:35:36.103Z,21.88
2023-11-22T08:38:06.120Z,24.95
2023-11-22T08:40:38.060Z,19.70
2023-11-22T08:43:08.753Z,36.25
2023-11-22T08:45:37.259Z,33.13
2023-11-22T08:48:06.118Z,20.83
2023-11-22T08:50:34.700Z,18.75
2023-11-22T08:53:03.144Z,18.88
2023-11-22T08:55:31.752Z,16.92
2023-11-22T08:58:00.454Z,19.38
2023-11-22T09:00:33.477Z,15.90
2023-11-22T09:03:02.270Z,19.80
2023-11-22T09:05:31.264Z,17.33
2023-11-22T09:08:06.454Z,16.55
2023-11-22T09:10:42.129Z,17.63
2023-11-22T09:13:11.786Z,15.30
2023-11-22T09:15:42.844Z,17.85
2023-11-22T09:18:11.591Z,19.52
2023-11-22T09:20:45.019Z,16.20
2023-11-22T09:23:15.726Z,18.13
2023-11-22T09:25:44.777Z,17.73
2023-11-22T09:28:13.267Z,17.90
2023-11-22T09:30:44.080Z,14.98
2023-11-22T09:33:16.138Z,16.50
2023-11-22T09:35:48.683Z,16.33
2023-11-22T09:38:18.090Z,15.05
2023-11-22T09:40:48.599Z,46.35
2023-11-22T09:43:19.884Z,26.60
2023-11-22T09:45:55.949Z,14.13
2023-11-22T09:48:28.615Z,13.25
2023-11-22T09:51:04.144Z,16.17
2023-11-22T09:53:36.184Z,14.98
2023-11-22T09:56:07.649Z,17.00
2023-11-22T09:58:38.709Z,14.82
2023-11-22T10:01:09.859Z,14.07
2023-11-22T10:03:38.977Z,16.88
2023-11-22T10:06:08.387Z,14.43
2023-11-22T10:08:38.320Z,13.07
2023-11-22T10:11:07.939Z,11.93
2023-11-22T10:13:37.047Z,11.57
2023-11-22T10:16:15.702Z,14.88
2023-11-22T10:18:45.676Z,14.02
2023-11-22T10:21:23.501Z,14.05
2023-11-22T10:23:53.874Z,17.65
2023-11-22T10:26:24.148Z,12.32
2023-11-22T10:28:53.517Z,12.50
2023-11-22T10:31:24.339Z,11.63
2023-11-22T10:33:54.402Z,14.07
2023-11-22T10:36:27.000Z,19.35
2023-11-22T10:38:56.582Z,11.50
2023-11-22T10:41:25.470Z,12.43
2023-11-22T10:43:56.981Z,12.07
2023-11-22T10:46:30.302Z,12.20
2023-11-22T10:48:59.305Z,12.07
2023-11-22T10:51:32.802Z,10.95
2023-11-22T10:54:04.416Z,11.75
2023-11-22T10:56:40.540Z,11.40
2023-11-22T10:59:14.986Z,11.00
2023-11-22T11:01:52.257Z,12.07
2023-11-22T11:04:29.953Z,12.18
2023-11-22T11:07:01.591Z,11.02
2023-11-22T11:09:33.906Z,12.55
2023-11-22T11:12:07.764Z,10.85
2023-11-22T11:14:38.535Z,10.60
2023-11-22T11:17:10.655Z,10.18
2023-11-22T11:19:39.297Z,10.63
2023-11-22T11:22:11.074Z,10.63
2023-11-22T11:24:45.590Z,9.88
2023-11-22T11:27:14.256Z,10.40
2023-11-22T11:29:45.154Z,11.10
2023-11-22T11:32:31.831Z,11.35
2023-11-22T11:35:02.224Z,11.15
2023-11-22T11:37:31.827Z,10.40
2023-11-22T11:40:00.998Z,9.55
2023-11-22T11:42:29.897Z,10.35
2023-11-22T11:45:07.933Z,10.57
2023-11-22T11:47:38.297Z,11.73
2023-11-22T11:50:07.561Z,12.00
2023-11-22T11:52:36.715Z,10.45
2023-11-22T11:55:07.447Z,9.75
2023-11-22T11:57:38.166Z,10.35
2023-11-22T12:00:07.940Z,12.18
2023-11-22T12:02:44.674Z,13.43
2023-11-22T12:05:14.217Z,11.15
2023-11-22T12:07:43.539Z,11.32
2023-11-22T12:10:13.622Z,9.90
2023-11-22T12:12:45.666Z,10.25
2023-11-22T12:15:15.715Z,9.85
2023-11-22T12:17:46.009Z,8.55
2023-11-22T12:20:17.914Z,10.30
2023-11-22T12:22:47.201Z,8.88
2023-11-22T12:25:16.166Z,9.70
2023-11-22T12:27:45.647Z,8.52
2023-11-22T12:30:33.032Z,10.23
2023-11-22T12:33:08.438Z,8.93
2023-11-22T12:35:37.485Z,9.30
2023-11-22T12:38:07.822Z,8.40
2023-11-22T12:40:36.908Z,9.40
2023-11-22T12:43:07.459Z,11.73
2023-11-22T12:45:40.164Z,10.00
2023-11-22T12:48:27.587Z,8.43
2023-11-22T12:50:56.306Z,6.57
2023-11-22T12:53:27.067Z,7.40
2023-11-22T12:55:56.446Z,7.10
2023-11-22T12:58:25.955Z,8.95
2023-11-22T13:00:59.467Z,6.70
2023-11-22T13:03:30.532Z,8.73
2023-11-22T13:06:00.030Z,6.30
2023-11-22T13:08:30.823Z,8.45
2023-11-22T13:11:00.557Z,6.25
2023-11-22T13:13:31.565Z,6.07
2023-11-22T13:16:01.094Z,5.65
2023-11-22T13:18:31.287Z,7.30
2023-11-22T13:21:02.463Z,5.72
2023-11-22T13:23:31.482Z,6.90
2023-11-22T13:25:59.874Z,9.15
2023-11-22T13:28:29.385Z,7.78
2023-11-22T13:30:57.996Z,9.07
2023-11-22T13:33:26.687Z,7.55
2023-11-22T13:35:56.619Z,7.72
2023-11-22T13:38:25.281Z,8.77
2023-11-22T13:40:54.274Z,8.57
2023-11-22T13:43:23.278Z,8.07
2023-11-22T13:45:52.194Z,10.50
2023-11-22T13:48:21.393Z,9.43
2023-11-22T13:50:50.450Z,8.70
2023-11-22T13:53:22.985Z,7.95
2023-11-22T13:55:53.510Z,8.40
2023-11-22T13:58:22.035Z,9.15
2023-11-22T14:00:51.800Z,8.07
2023-11-22T14:03:22.581Z,7.63
2023-11-22T14:05:51.148Z,8.68
2023-11-22T14:08:21.799Z,8.90
2023-11-22T14:10:50.417Z,7.40
2023-11-22T14:13:19.749Z,8.68
2023-11-22T14:15:48.528Z,8.77
2023-11-22T14:18:18.501Z,11.38
2023-11-22T14:20:47.172Z,11.50
2023-11-22T14:23:15.761Z,10.68
2023-11-22T14:25:45.751Z,9.50
2023-11-22T14:28:16.338Z,9.70
2023-11-22T14:30:44.866Z,10.43
2023-11-22T14:33:13.446Z,10.63
2023-11-22T14:35:45.100Z,11.50
2023-11-22T14:38:14.787Z,10.73
2023-11-22T14:40:52.492Z,10.65
2023-11-22T14:43:21.600Z,11.13
2023-11-22T14:45:50.147Z,11.27
2023-11-22T14:48:19.832Z,11.57
2023-11-22T14:50:49.947Z,14.80
2023-11-22T14:53:21.745Z,10.80
2023-11-22T14:55:51.526Z,13.68
2023-11-22T14:58:20.064Z,12.15
2023-11-22T15:00:49.791Z,13.18
2023-11-22T15:03:25.846Z,14.02
2023-11-22T15:05:54.671Z,14.90
2023-11-22T15:08:23.336Z,12.00
2023-11-22T15:10:53.385Z,14.82
2023-11-22T15:13:34.187Z,16.85
2023-11-22T15:16:03.119Z,17.75
2023-11-22T15:18:32.819Z,15.20
2023-11-22T15:21:01.386Z,13.10
2023-11-22T15:23:38.038Z,14.98
2023-11-22T15:26:08.060Z,14.80
2023-11-22T15:28:37.125Z,14.55
2023-11-22T15:31:06.134Z,16.50
2023-11-22T15:33:40.491Z,16.20
2023-11-22T15:36:19.737Z,15.30
2023-11-22T15:38:48.705Z,15.38
2023-11-22T15:41:22.327Z,14.68
2023-11-22T15:43:53.101Z,16.52
2023-11-22T15:46:25.556Z,15.77
2023-11-22T15:48:54.470Z,13.52
2023-11-22T15:51:22.988Z,13.57
2023-11-22T15:53:52.408Z,19.05
2023-11-22T15:56:22.469Z,17.40
2023-11-22T15:58:51.224Z,17.30
2023-11-22T16:01:19.974Z,17.52
2023-11-22T16:03:50.086Z,18.13
2023-11-22T16:06:19.482Z,17.27
2023-11-22T16:08:48.014Z,18.88
2023-11-22T16:11:17.089Z,15.10
2023-11-22T16:13:48.782Z,18.52
2023-11-22T16:16:18.520Z,20.48
2023-11-22T16:18:47.072Z,15.48
2023-11-22T16:21:15.609Z,18.70
2023-11-22T16:23:44.074Z,18.27
2023-11-22T16:26:12.565Z,19.48
2023-11-22T16:28:41.049Z,17.73
2023-11-22T16:31:12.657Z,16.80
2023-11-22T16:33:41.356Z,17.77
2023-11-22T16:36:10.482Z,18.90
2023-11-22T16:38:39.593Z,17.35
2023-11-22T16:41:10.895Z,18.55
2023-11-22T16:43:41.118Z,15.90
2023-11-22T16:46:11.848Z,17.35
2023-11-22T16:48:40.745Z,20.40
2023-11-22T16:51:09.459Z,19.65
2023-11-22T16:53:41.389Z,17.63
2023-11-22T16:56:09.980Z,19.10
2023-11-22T16:58:39.469Z,18.55
2023-11-22T17:01:09.054Z,20.40
2023-11-22T17:03:40.294Z,19.33
2023-11-22T17:06:09.395Z,20.50
2023-11-22T17:08:39.200Z,18.55
2023-11-22T17:11:07.904Z,21.60
2023-11-22T17:13:37.095Z,19.98
2023-11-22T17:16:06.592Z,22.58
2023-11-22T17:18:35.230Z,23.98
2023-11-22T17:21:06.439Z,19.92
2023-11-22T17:23:37.156Z,23.63
2023-11-22T17:26:06.802Z,24.77
2023-11-22T17:28:35.212Z,18.92
2023-11-22T17:31:04.087Z,21.23
2023-11-22T17:33:33.088Z,21.20
2023-11-22T17:36:02.135Z,19.67
2023-11-22T17:38:32.514Z,19.33
2023-11-22T17:41:01.995Z,18.15
2023-11-22T17:43:30.961Z,22.73
2023-11-22T17:46:00.719Z,19.17
2023-11-22T17:48:30.685Z,20.48
2023-11-22T17:50:59.802Z,20.98
2023-11-22T17:53:28.319Z,19.73
2023-11-22T17:56:00.671Z,20.60
2023-11-22T17:58:30.689Z,22.65
2023-11-22T18:01:00.176Z,20.58
2023-11-22T18:03:37.728Z,25.52
2023-11-22T18:06:07.588Z,19.52
2023-11-22T18:08:36.808Z,23.35
2023-11-22T18:11:07.728Z,22.60
2023-11-22T18:13:39.035Z,21.67
2023-11-22T18:16:09.235Z,22.25
2023-11-22T18:18:39.074Z,20.13
2023-11-22T18:21:10.123Z,22.52
2023-11-22T18:23:39.242Z,22.70
2023-11-22T18:26:12.231Z,19.58
2023-11-22T18:28:41.134Z,21.33
2023-11-22T18:31:14.530Z,24.17
2023-11-22T18:33:43.780Z,21.05
2023-11-22T18:36:13.198Z,19.52
2023-11-22T18:38:48.424Z,19.40
2023-11-22T18:41:24.900Z,18.65
2023-11-22T18:43:53.538Z,23.40
2023-11-22T18:46:23.264Z,19.08
2023-11-22T18:48:54.466Z,20.45
2023-11-22T18:51:25.821Z,19.65
2023-11-22T18:53:54.509Z,19.77
2023-11-22T18:56:24.409Z,20.83
2023-11-22T18:58:53.984Z,19.42
2023-11-22T19:01:23.474Z,19.92
2023-11-22T19:03:52.193Z,16.63
2023-11-22T19:06:21.139Z,15.48
2023-11-22T19:08:50.377Z,18.25
2023-11-22T19:11:19.304Z,19.70
2023-11-22T19:13:50.659Z,16.77
2023-11-22T19:16:19.803Z,17.63
2023-11-22T19:18:48.811Z,16.95
2023-11-22T19:21:20.937Z,20.42
2023-11-22T19:23:51.633Z,18.83
2023-11-22T19:26:25.416Z,19.23
2023-11-22T19:28:55.988Z,15.43
2023-11-22T19:31:24.885Z,15.23
2023-11-22T19:33:53.692Z,20.17
2023-11-22T19:36:23.132Z,16.77
2023-11-22T19:38:54.459Z,16.45
2023-11-22T19:41:23.662Z,18.17
2023-11-22T19:43:52.862Z,14.80
2023-11-22T19:46:22.861Z,14.90
2023-11-22T19:48:51.614Z,15.18
2023-11-22T19:51:20.854Z,16.35
2023-11-22T19:53:49.646Z,15.30
2023-11-22T19:56:18.233Z,16.52
2023-11-22T19:58:49.774Z,17.35
2023-11-22T20:01:19.088Z,18.45
2023-11-22T20:03:50.090Z,17.02
2023-11-22T20:06:19.034Z,20.13
2023-11-22T20:08:48.576Z,19.95
2023-11-22T20:11:17.578Z,18.23
2023-11-22T20:13:46.469Z,18.80
2023-11-22T20:16:15.391Z,18.10
2023-11-22T20:18:45.701Z,19.60
2023-11-22T20:21:15.891Z,18.65
2023-11-22T20:23:46.632Z,18.55
2023-11-22T20:26:16.406Z,18.13
2023-11-22T20:28:44.974Z,19.10
2023-11-22T20:31:14.420Z,18.08
2023-11-22T20:33:43.059Z,19.58
2023-11-22T20:36:16.129Z,17.27
2023-11-22T20:38:50.504Z,17.85
2023-11-22T20:41:22.019Z,17.90
2023-11-22T20:43:50.807Z,18.60
2023-11-22T20:46:19.339Z,19.88
2023-11-22T20:48:48.315Z,17.73
2023-11-22T20:51:19.101Z,17.55
2023-11-22T20:53:50.515Z,17.75
2023-11-22T20:56:23.520Z,15.93
2023-11-22T20:58:53.433Z,16.20
2023-11-22T21:01:23.608Z,16.67
2023-11-22T21:03:52.976Z,17.83
2023-11-22T21:06:28.567Z,18.90
2023-11-22T21:08:57.085Z,14.50
2023-11-22T21:11:29.732Z,14.32
2023-11-22T21:13:59.790Z,13.75
2023-11-22T21:16:31.003Z,16.45
2023-11-22T21:19:00.116Z,15.73
2023-11-22T21:21:31.217Z,16.55
2023-11-22T21:24:00.007Z,19.98
2023-11-22T21:26:28.466Z,17.00
2023-11-22T21:28:57.283Z,15.60
2023-11-22T21:31:26.447Z,14.25
2023-11-22T21:33:55.707Z,18.33
2023-11-22T21:36:24.380Z,19.27
2023-11-22T21:38:54.731Z,17.70
2023-11-22T21:41:24.276Z,15.60
2023-11-22T21:43:57.214Z,16.52
2023-11-22T21:46:25.875Z,17.63
2023-11-22T21:48:54.392Z,16.45
2023-11-22T21:51:37.805Z,13.90
2023-11-22T21:54:08.144Z,15.32
2023-11-22T21:56:43.974Z,19.25
2023-11-22T21:59:12.584Z,15.85
2023-11-22T22:01:50.286Z,13.48
2023-11-22T22:04:19.667Z,15.85
2023-11-22T22:06:48.699Z,14.63
2023-11-22T22:09:20.635Z,14.18
2023-11-22T22:11:51.790Z,15.50
2023-11-22T22:14:20.498Z,15.40
2023-11-22T22:16:48.947Z,19.38
2023-11-22T22:19:17.924Z,13.13
2023-11-22T22:21:46.494Z,14.32
2023-11-22T22:24:15.228Z,13.98
2023-11-22T22:26:45.080Z,13.50
2023-11-22T22:29:14.259Z,13.52
2023-11-22T22:31:43.182Z,13.90
2023-11-22T22:34:12.049Z,13.82
2023-11-22T22:36:41.395Z,13.73
2023-11-22T22:39:11.249Z,13.13
2023-11-22T22:41:40.187Z,13.27
2023-11-22T22:44:10.485Z,10.15
2023-11-22T22:46:43.786Z,13.30
2023-11-22T22:49:13.059Z,12.90
2023-11-22T22:51:42.381Z,13.02
2023-11-22T22:54:12.234Z,13.48
2023-11-22T22:56:42.233Z,15.55
2023-11-22T22:59:12.439Z,11.45
2023-11-22T23:01:41.612Z,12.20
2023-11-22T23:04:12.862Z,13.02
2023-11-22T23:06:41.646Z,15.10
2023-11-22T23:09:11.418Z,13.75
2023-11-22T23:11:43.514Z,10.48
2023-11-22T23:14:14.483Z,14.10
2023-11-22T23:16:44.871Z,10.13
2023-11-22T23:19:14.185Z,12.15
2023-11-22T23:21:46.172Z,10.60
2023-11-22T23:24:16.125Z,11.40
2023-11-22T23:26:44.943Z,13.13
2023-11-22T23:29:27.316Z,10.32
2023-11-22T23:31:58.286Z,10.65
2023-11-22T23:34:27.100Z,11.93
2023-11-22T23:36:56.519Z,11.10
2023-11-22T23:39:26.672Z,14.13
2023-11-22T23:41:55.332Z,11.68
2023-11-22T23:44:25.234Z,11.05
2023-11-22T23:46:55.383Z,10.80
2023-11-22T23:49:24.403Z,11.43
2023-11-22T23:51:53.252Z,11.35
2023-11-22T23:54:21.735Z,14.35
2023-11-22T23:56:50.932Z,10.18
2023-11-22T23:59:19.347Z,10.18
